Hancock County-Bar Harbor Airport Bar Harbor US
ICAO: KBHB
IATA: BHB
Category: Medium
Scheduled Services: Yes

Elevation: 83 ft
TransAlt. 18000 ft.

Airport Communications:
BANGOR APP/DEP:124.5
AWOS 3:118.025
CLNC DEL:119.9
CTAF/UNICOM:123

KBHB Zoom In..

If you have problems with the map follow the link
https://www.worldairports.se/pages/airport.php?
ICAO=KBHB

Runways:

(A) RW 04 length 5200 ft width 100 ft
---- / hdg 44

(B) RW 17 length 3253 ft width 75 ft
---- / hdg 169

(C) RW 22 length 5200 ft width 100 ft
ILS 108.30 / hdg 224

(D) RW 35 length 3253 ft width 75 ft
---- / hdg 349

Location; KBHB
Day. 18 / Time. 12.56 Zulu
* Altimeter: 30.51
* Temperature: -17° c. -1.4°f.
* Wind from: 330° Speed 05 kn.
Dewpoint: -21° c.
Visibility: 10 Statute Miles.
Clouds: Clear (automated report).

KBHB 181256Z AUTO 33005KT 10SM CLR M17/M21 A3051 RMK AO2 SLP336 T11671211 FZRANO


Wind From 330°
Speed 05 kn.

 
 
jpsmedia worldairports.se 2020   terms of use